Time;durP1;ratioP1;P1;durP2;ratioP2;P2;SDS_P1;SDS_P2;PMS_P1;PMS_P2;Temp;Humidity;BMP_temperature;BMP_pressure;BME280_temperature;BME280_humidity;BME280_pressure;Samples;Min_cycle;Max_cycle;Signal;HPM_P1;HPM_P2
2023/12/19 00:02:12;;;;;;;11.73;7.27;;;;;;;;;;4889752;29;20212;-62
2023/12/19 00:04:39;;;;;;;13.30;6.93;;;;;;;;;;4889158;29;20568;-62
2023/12/19 00:07:07;;;;;;;10.80;7.33;;;;;;;;;;4886255;29;20210;-62
2023/12/19 00:09:34;;;;;;;10.57;7.37;;;;;;;;;;4888870;29;20342;-61
2023/12/19 00:12:01;;;;;;;8.90;6.57;;;;;;;;;;4889992;29;20223;-62
2023/12/19 00:14:28;;;;;;;11.90;7.17;;;;;;;;;;4889146;29;20206;-62
2023/12/19 00:16:58;;;;;;;12.13;7.33;;;;;;;;;;4890309;29;20589;-62
2023/12/19 00:19:25;;;;;;;10.63;7.77;;;;;;;;;;4892542;29;20589;-62
2023/12/19 00:21:52;;;;;;;11.17;7.57;;;;;;;;;;4893075;29;20247;-62
2023/12/19 00:24:20;;;;;;;11.37;7.23;;;;;;;;;;4892891;29;20215;-62
2023/12/19 00:26:47;;;;;;;11.03;7.07;;;;;;;;;;4893026;29;20220;-62
2023/12/19 00:29:14;;;;;;;11.90;7.63;;;;;;;;;;4892770;29;20239;-61
2023/12/19 00:31:42;;;;;;;12.73;7.77;;;;;;;;;;4892772;29;20821;-62
2023/12/19 00:34:09;;;;;;;9.70;6.80;;;;;;;;;;4893133;29;20223;-62
2023/12/19 00:36:36;;;;;;;11.10;7.53;;;;;;;;;;4893088;29;20272;-62
2023/12/19 00:39:04;;;;;;;9.50;7.10;;;;;;;;;;4892108;29;20209;-61
2023/12/19 00:41:33;;;;;;;11.63;7.73;;;;;;;;;;4893053;29;20328;-63
2023/12/19 00:44:01;;;;;;;9.20;6.77;;;;;;;;;;4892241;29;20226;-62
2023/12/19 00:46:28;;;;;;;11.60;7.30;;;;;;;;;;4891926;29;20207;-62
2023/12/19 00:48:55;;;;;;;11.60;7.17;;;;;;;;;;4891877;29;20243;-62
2023/12/19 00:51:22;;;;;;;14.97;7.83;;;;;;;;;;4889459;29;20766;-62
2023/12/19 00:53:49;;;;;;;8.60;6.60;;;;;;;;;;4893067;29;20303;-64
2023/12/19 00:56:16;;;;;;;10.07;7.37;;;;;;;;;;4891941;29;20204;-62
2023/12/19 00:58:45;;;;;;;14.03;8.40;;;;;;;;;;4892475;29;20216;-62
2023/12/19 01:01:12;;;;;;;11.60;7.43;;;;;;;;;;4891931;29;20657;-61
2023/12/19 01:03:39;;;;;;;10.77;7.47;;;;;;;;;;4892384;29;20213;-62
2023/12/19 01:06:07;;;;;;;11.70;7.27;;;;;;;;;;4890348;29;20295;-62
2023/12/19 01:08:34;;;;;;;11.83;7.53;;;;;;;;;;4878084;29;20248;-62
2023/12/19 01:11:01;;;;;;;10.03;6.93;;;;;;;;;;4892116;29;20216;-62
2023/12/19 01:13:28;;;;;;;10.90;6.97;;;;;;;;;;4892254;29;20213;-62
2023/12/19 01:15:57;;;;;;;11.73;7.77;;;;;;;;;;4892293;29;20216;-62
2023/12/19 01:18:24;;;;;;;15.30;7.17;;;;;;;;;;4892765;29;20322;-62
2023/12/19 01:20:51;;;;;;;12.10;7.07;;;;;;;;;;4891977;29;20249;-62
2023/12/19 01:23:18;;;;;;;10.33;6.97;;;;;;;;;;4892213;29;20208;-62
2023/12/19 01:25:45;;;;;;;9.97;6.57;;;;;;;;;;4891908;29;20204;-62
2023/12/19 01:28:13;;;;;;;11.27;7.23;;;;;;;;;;4891889;29;20217;-62
2023/12/19 01:30:40;;;;;;;8.47;6.60;;;;;;;;;;4887343;29;20358;-62
2023/12/19 01:33:08;;;;;;;11.80;7.77;;;;;;;;;;4884829;29;20219;-62
2023/12/19 01:35:35;;;;;;;10.37;6.73;;;;;;;;;;4891348;29;20219;-62
2023/12/19 01:38:03;;;;;;;9.77;7.13;;;;;;;;;;4888470;29;20211;-62
2023/12/19 01:40:31;;;;;;;11.43;7.63;;;;;;;;;;4884902;29;20217;-62
2023/12/19 01:42:58;;;;;;;9.30;7.17;;;;;;;;;;4872800;29;20235;-62
2023/12/19 01:45:27;;;;;;;10.67;7.17;;;;;;;;;;4883275;29;20238;-62
2023/12/19 01:47:54;;;;;;;13.37;7.70;;;;;;;;;;4891412;29;20213;-62
2023/12/19 01:50:23;;;;;;;11.37;7.80;;;;;;;;;;4891508;29;20618;-62
2023/12/19 01:52:50;;;;;;;13.87;7.60;;;;;;;;;;4891377;29;20710;-62
2023/12/19 01:55:18;;;;;;;12.00;8.20;;;;;;;;;;4891923;29;20223;-63
2023/12/19 01:57:46;;;;;;;12.20;7.37;;;;;;;;;;4891343;29;20215;-62
2023/12/19 02:00:13;;;;;;;11.87;7.57;;;;;;;;;;4891512;29;20211;-62
2023/12/19 02:02:41;;;;;;;10.67;7.23;;;;;;;;;;4891267;29;20209;-62
2023/12/19 02:05:08;;;;;;;9.00;6.70;;;;;;;;;;4891213;29;20652;-63
2023/12/19 02:07:36;;;;;;;11.83;7.20;;;;;;;;;;4891708;29;20251;-62
2023/12/19 02:10:04;;;;;;;8.80;6.60;;;;;;;;;;4890639;29;20247;-62
2023/12/19 02:12:31;;;;;;;12.53;7.70;;;;;;;;;;4890970;29;20297;-62
2023/12/19 02:14:58;;;;;;;9.23;6.67;;;;;;;;;;4890851;29;20891;-63
2023/12/19 02:17:25;;;;;;;8.40;6.43;;;;;;;;;;4891312;29;20240;-62
2023/12/19 02:19:52;;;;;;;8.90;6.03;;;;;;;;;;4890541;29;20217;-62
2023/12/19 02:22:20;;;;;;;7.70;6.27;;;;;;;;;;4890686;29;20370;-62
2023/12/19 02:24:48;;;;;;;12.07;6.27;;;;;;;;;;4891145;29;20227;-63
2023/12/19 02:27:16;;;;;;;8.60;6.67;;;;;;;;;;4891036;29;20220;-62
2023/12/19 02:29:43;;;;;;;9.43;6.63;;;;;;;;;;4890491;29;20223;-62
2023/12/19 02:32:10;;;;;;;8.83;6.47;;;;;;;;;;4890466;29;20675;-62
2023/12/19 02:34:37;;;;;;;8.63;6.20;;;;;;;;;;4890170;29;20207;-63
2023/12/19 02:37:04;;;;;;;8.50;5.83;;;;;;;;;;4890796;29;20279;-63
2023/12/19 02:39:31;;;;;;;8.47;5.93;;;;;;;;;;4889986;29;20215;-63
2023/12/19 02:42:00;;;;;;;9.53;6.43;;;;;;;;;;4890123;29;20208;-62
2023/12/19 02:44:27;;;;;;;9.70;6.23;;;;;;;;;;4890632;29;20231;-62
2023/12/19 02:46:54;;;;;;;9.60;6.90;;;;;;;;;;4889999;29;20223;-63
2023/12/19 02:49:21;;;;;;;7.53;6.43;;;;;;;;;;4890782;29;20222;-62
2023/12/19 02:51:48;;;;;;;9.07;6.27;;;;;;;;;;4885185;29;20213;-62
2023/12/19 02:54:15;;;;;;;10.77;7.03;;;;;;;;;;4882790;29;20224;-63
2023/12/19 02:56:42;;;;;;;12.43;6.77;;;;;;;;;;4890747;29;20246;-63
2023/12/19 02:59:10;;;;;;;13.50;7.33;;;;;;;;;;4889619;29;20212;-62
2023/12/19 03:01:37;;;;;;;10.80;6.87;;;;;;;;;;4889818;29;20219;-62
2023/12/19 03:04:04;;;;;;;9.83;6.50;;;;;;;;;;4890615;29;20220;-63
2023/12/19 03:06:31;;;;;;;9.50;6.57;;;;;;;;;;4890228;29;20594;-62
2023/12/19 03:08:58;;;;;;;13.07;7.20;;;;;;;;;;4890607;29;20216;-63
2023/12/19 03:11:25;;;;;;;9.57;6.47;;;;;;;;;;4890035;29;20232;-62
2023/12/19 03:13:52;;;;;;;9.93;6.50;;;;;;;;;;4882037;29;20221;-62
2023/12/19 03:16:21;;;;;;;10.20;6.67;;;;;;;;;;4871572;29;20341;-62
2023/12/19 03:18:48;;;;;;;10.23;6.90;;;;;;;;;;4880741;29;20240;-62
2023/12/19 03:21:15;;;;;;;12.37;7.30;;;;;;;;;;4888335;29;20245;-63
2023/12/19 03:23:42;;;;;;;10.93;6.87;;;;;;;;;;4889734;29;20319;-62
2023/12/19 03:26:09;;;;;;;14.87;6.67;;;;;;;;;;4890076;29;20228;-63
2023/12/19 03:28:37;;;;;;;10.43;6.87;;;;;;;;;;4890126;29;20213;-62
2023/12/19 03:31:04;;;;;;;9.97;7.13;;;;;;;;;;4889702;29;20715;-63
2023/12/19 03:33:33;;;;;;;11.50;6.97;;;;;;;;;;4887349;29;20223;-62
2023/12/19 03:36:00;;;;;;;12.13;8.20;;;;;;;;;;4889220;29;20228;-63
2023/12/19 03:38:27;;;;;;;13.03;7.23;;;;;;;;;;4890053;29;20579;-62
2023/12/19 03:40:54;;;;;;;14.43;7.53;;;;;;;;;;4889439;29;20212;-62
2023/12/19 03:43:21;;;;;;;14.53;8.30;;;;;;;;;;4890092;29;20216;-62
2023/12/19 03:45:48;;;;;;;17.97;8.87;;;;;;;;;;4889153;29;20223;-63
2023/12/19 03:48:15;;;;;;;15.73;8.30;;;;;;;;;;4889828;29;20688;-63
2023/12/19 03:50:43;;;;;;;19.43;9.17;;;;;;;;;;4890156;29;20240;-62
2023/12/19 03:53:11;;;;;;;17.77;8.83;;;;;;;;;;4893973;29;20687;-62
2023/12/19 03:55:38;;;;;;;15.57;8.83;;;;;;;;;;4889407;29;20212;-62
2023/12/19 03:58:05;;;;;;;15.13;9.00;;;;;;;;;;4891369;29;20672;-63
2023/12/19 04:00:32;;;;;;;15.80;9.03;;;;;;;;;;4892906;29;20336;-63
2023/12/19 04:02:59;;;;;;;17.27;8.47;;;;;;;;;;4893278;29;20219;-63
2023/12/19 04:05:26;;;;;;;13.37;7.57;;;;;;;;;;4892679;29;20929;-63
2023/12/19 04:07:55;;;;;;;13.47;8.50;;;;;;;;;;4893335;29;20263;-62
2023/12/19 04:10:22;;;;;;;15.63;7.87;;;;;;;;;;4893117;29;20715;-62
2023/12/19 04:12:49;;;;;;;12.33;8.17;;;;;;;;;;4892498;29;20220;-62
2023/12/19 04:15:16;;;;;;;15.03;8.60;;;;;;;;;;4892978;29;20209;-62
2023/12/19 04:17:43;;;;;;;16.20;7.90;;;;;;;;;;4892523;29;20224;-62
2023/12/19 04:20:11;;;;;;;16.30;8.67;;;;;;;;;;4892985;29;20201;-62
2023/12/19 04:22:37;;;;;;;13.47;8.50;;;;;;;;;;4884116;29;20309;-62
2023/12/19 04:25:06;;;;;;;14.43;7.80;;;;;;;;;;4887521;29;20661;-63
2023/12/19 04:27:33;;;;;;;12.63;8.37;;;;;;;;;;4892857;29;20215;-62
2023/12/19 04:30:00;;;;;;;13.10;7.63;;;;;;;;;;4890005;29;20236;-62
2023/12/19 04:32:27;;;;;;;13.77;8.80;;;;;;;;;;4892914;29;20223;-62
2023/12/19 04:34:54;;;;;;;18.27;9.17;;;;;;;;;;4893132;29;20694;-62
2023/12/19 04:37:21;;;;;;;15.60;8.77;;;;;;;;;;4892762;29;20213;-63
2023/12/19 04:39:48;;;;;;;15.03;8.53;;;;;;;;;;4892028;29;20208;-62
2023/12/19 04:42:17;;;;;;;15.10;8.17;;;;;;;;;;4892687;29;20220;-62
2023/12/19 04:44:44;;;;;;;14.57;8.73;;;;;;;;;;4892603;29;20208;-62
2023/12/19 04:47:11;;;;;;;13.77;7.90;;;;;;;;;;4890991;29;20244;-60
2023/12/19 04:49:39;;;;;;;12.83;8.27;;;;;;;;;;4892349;29;20227;-60
2023/12/19 04:52:06;;;;;;;14.20;8.77;;;;;;;;;;4891225;29;20216;-60
2023/12/19 04:54:33;;;;;;;12.83;7.90;;;;;;;;;;4891904;29;20212;-60
2023/12/19 04:57:00;;;;;;;13.40;7.80;;;;;;;;;;4890721;29;20592;-60
2023/12/19 04:59:30;;;;;;;13.67;7.63;;;;;;;;;;4891175;29;20624;-60
2023/12/19 05:01:57;;;;;;;12.73;8.10;;;;;;;;;;4891036;29;20276;-61
2023/12/19 05:04:24;;;;;;;11.37;7.70;;;;;;;;;;4890830;29;20710;-61
2023/12/19 05:06:52;;;;;;;11.63;7.63;;;;;;;;;;4892676;29;20695;-61
2023/12/19 05:09:20;;;;;;;12.90;7.70;;;;;;;;;;4892050;29;20446;-61
2023/12/19 05:11:47;;;;;;;12.63;7.17;;;;;;;;;;4892338;29;20664;-61
2023/12/19 05:14:14;;;;;;;15.47;8.67;;;;;;;;;;4891602;29;20209;-61
2023/12/19 05:16:42;;;;;;;12.30;7.33;;;;;;;;;;4891935;29;20770;-61
2023/12/19 05:19:09;;;;;;;11.73;7.80;;;;;;;;;;4891459;29;20233;-61
2023/12/19 05:21:40;;;;;;;12.27;7.87;;;;;;;;;;4891696;29;20250;-61
2023/12/19 05:24:09;;;;;;;11.07;7.67;;;;;;;;;;4891739;29;20645;-61
2023/12/19 05:26:36;;;;;;;11.10;7.60;;;;;;;;;;4892428;29;20216;-61
2023/12/19 05:29:03;;;;;;;10.73;7.63;;;;;;;;;;4891502;29;20213;-61
2023/12/19 05:31:30;;;;;;;13.47;7.57;;;;;;;;;;4892239;29;20229;-62
2023/12/19 05:33:58;;;;;;;11.73;7.50;;;;;;;;;;4891332;29;20221;-62
2023/12/19 05:36:25;;;;;;;14.17;8.37;;;;;;;;;;4891782;29;20220;-61
2023/12/19 05:38:52;;;;;;;44.40;13.87;;;;;;;;;;4892068;29;20209;-61
2023/12/19 05:41:19;;;;;;;19.90;9.47;;;;;;;;;;4891462;29;20222;-61
2023/12/19 05:43:47;;;;;;;11.83;7.60;;;;;;;;;;4883342;29;20209;-61
2023/12/19 05:46:14;;;;;;;12.77;7.63;;;;;;;;;;4885046;29;20205;-61
2023/12/19 05:48:41;;;;;;;11.30;7.63;;;;;;;;;;4891098;29;20241;-61
2023/12/19 05:51:10;;;;;;;12.57;7.70;;;;;;;;;;4890325;29;20742;-61
2023/12/19 05:53:38;;;;;;;11.90;7.23;;;;;;;;;;4886529;29;20209;-61
2023/12/19 05:56:05;;;;;;;11.73;7.53;;;;;;;;;;4883167;29;20287;-62
2023/12/19 05:58:32;;;;;;;11.17;6.87;;;;;;;;;;4887348;29;20559;-62
2023/12/19 06:00:59;;;;;;;11.17;7.17;;;;;;;;;;4889831;29;20209;-62
2023/12/19 06:03:26;;;;;;;13.47;7.50;;;;;;;;;;4891766;29;20213;-62
2023/12/19 06:05:53;;;;;;;12.60;8.10;;;;;;;;;;4889732;29;20216;-62
2023/12/19 06:08:24;;;;;;;13.20;7.43;;;;;;;;;;4891309;29;20220;-62
2023/12/19 06:10:52;;;;;;;10.37;7.33;;;;;;;;;;4888800;29;20326;-62
2023/12/19 06:13:19;;;;;;;11.77;7.60;;;;;;;;;;4889290;29;20205;-61
2023/12/19 06:15:47;;;;;;;12.47;8.17;;;;;;;;;;4891042;29;20209;-62
2023/12/19 06:18:15;;;;;;;9.27;6.67;;;;;;;;;;4891163;29;20302;-62
2023/12/19 06:20:42;;;;;;;11.03;7.33;;;;;;;;;;4890721;29;20683;-62
2023/12/19 06:23:09;;;;;;;11.37;6.93;;;;;;;;;;4890989;29;20762;-62
2023/12/19 06:25:39;;;;;;;10.53;6.50;;;;;;;;;;4891001;29;20699;-62
2023/12/19 06:28:06;;;;;;;11.20;6.97;;;;;;;;;;4890836;29;20216;-62
2023/12/19 06:30:33;;;;;;;10.07;6.73;;;;;;;;;;4888613;29;20228;-62
2023/12/19 06:33:01;;;;;;;11.60;7.60;;;;;;;;;;4890844;29;20209;-62
2023/12/19 06:35:28;;;;;;;10.40;6.83;;;;;;;;;;4889195;29;20197;-62
2023/12/19 06:37:55;;;;;;;9.40;6.67;;;;;;;;;;4891099;29;20692;-61
2023/12/19 06:40:23;;;;;;;11.63;7.23;;;;;;;;;;4890286;29;20212;-62
2023/12/19 06:42:51;;;;;;;11.67;7.30;;;;;;;;;;4890475;29;20236;-62
2023/12/19 06:45:19;;;;;;;12.80;7.63;;;;;;;;;;4890258;29;20424;-62
2023/12/19 06:47:46;;;;;;;11.30;7.33;;;;;;;;;;4891003;29;20315;-62
2023/12/19 06:50:13;;;;;;;10.07;7.17;;;;;;;;;;4890384;29;20933;-61
2023/12/19 06:52:40;;;;;;;12.53;7.87;;;;;;;;;;4890737;29;20715;-64
2023/12/19 06:55:07;;;;;;;11.77;7.00;;;;;;;;;;4890118;29;20212;-61
2023/12/19 06:57:34;;;;;;;11.47;7.30;;;;;;;;;;4890619;29;20216;-61
2023/12/19 07:00:05;;;;;;;8.07;6.20;;;;;;;;;;4889908;29;20213;-62
2023/12/19 07:02:32;;;;;;;8.97;6.67;;;;;;;;;;4885836;29;20208;-61
2023/12/19 07:04:59;;;;;;;10.37;7.10;;;;;;;;;;4879688;29;20217;-61
2023/12/19 07:07:26;;;;;;;10.57;6.77;;;;;;;;;;4882395;29;20670;-61
2023/12/19 07:09:53;;;;;;;10.17;7.07;;;;;;;;;;4890274;29;20217;-62
2023/12/19 07:12:20;;;;;;;9.47;6.77;;;;;;;;;;4890206;29;20228;-61
2023/12/19 07:14:47;;;;;;;13.47;7.60;;;;;;;;;;4890325;29;20216;-61
2023/12/19 07:17:16;;;;;;;11.90;7.30;;;;;;;;;;4889972;29;20215;-60
2023/12/19 07:19:43;;;;;;;8.73;6.13;;;;;;;;;;4889008;29;20221;-61
2023/12/19 07:22:10;;;;;;;10.23;6.87;;;;;;;;;;4889814;29;20252;-61
2023/12/19 07:24:37;;;;;;;11.37;7.20;;;;;;;;;;4889293;29;20841;-61
2023/12/19 07:27:05;;;;;;;10.70;7.17;;;;;;;;;;4888670;29;20851;-61
2023/12/19 07:29:32;;;;;;;20.60;6.83;;;;;;;;;;4881047;29;20216;-62
2023/12/19 07:32:00;;;;;;;9.20;5.67;;;;;;;;;;4882709;29;20233;-62
2023/12/19 07:34:29;;;;;;;10.73;6.97;;;;;;;;;;4887892;29;21041;-61
2023/12/19 07:36:56;;;;;;;9.77;6.83;;;;;;;;;;4890164;29;20224;-61
2023/12/19 07:39:23;;;;;;;8.60;6.20;;;;;;;;;;4889399;29;20247;-61
2023/12/19 07:41:50;;;;;;;9.13;6.70;;;;;;;;;;4885229;29;20224;-61
2023/12/19 07:44:17;;;;;;;12.93;7.30;;;;;;;;;;4882264;29;20236;-61
2023/12/19 07:46:44;;;;;;;12.97;7.53;;;;;;;;;;4871725;29;20342;-62
2023/12/19 07:49:11;;;;;;;13.40;8.20;;;;;;;;;;4889776;29;20948;-62
2023/12/19 07:51:40;;;;;;;13.27;7.37;;;;;;;;;;4888970;29;20232;-62
2023/12/19 07:54:07;;;;;;;13.33;7.93;;;;;;;;;;4889521;29;20885;-62
2023/12/19 07:56:34;;;;;;;12.87;7.40;;;;;;;;;;4889769;29;20299;-61
2023/12/19 07:59:01;;;;;;;11.37;6.93;;;;;;;;;;4889721;29;20857;-62
2023/12/19 08:01:28;;;;;;;13.13;7.40;;;;;;;;;;4882621;29;20208;-61
2023/12/19 08:03:55;;;;;;;12.03;7.40;;;;;;;;;;4881708;29;20209;-61
2023/12/19 08:06:22;;;;;;;12.67;8.03;;;;;;;;;;4879751;29;20201;-61
2023/12/19 08:08:52;;;;;;;14.60;8.27;;;;;;;;;;4880982;29;20732;-61
2023/12/19 08:11:19;;;;;;;14.60;7.70;;;;;;;;;;4881065;29;20233;-62
2023/12/19 08:13:48;;;;;;;12.93;7.80;;;;;;;;;;4880923;29;20209;-61
2023/12/19 08:16:15;;;;;;;13.53;7.77;;;;;;;;;;4882295;29;20328;-61
2023/12/19 08:18:42;;;;;;;13.43;8.40;;;;;;;;;;4881086;29;20225;-61
2023/12/19 08:21:09;;;;;;;14.13;8.50;;;;;;;;;;4881369;29;20239;-60
2023/12/19 08:23:37;;;;;;;12.27;7.33;;;;;;;;;;4887596;29;20602;-61
2023/12/19 08:26:09;;;;;;;12.53;7.90;;;;;;;;;;4889571;29;20209;-61
2023/12/19 08:28:36;;;;;;;12.87;7.70;;;;;;;;;;4889303;29;20225;-62
2023/12/19 08:31:03;;;;;;;13.03;7.67;;;;;;;;;;4881932;29;20683;-61
2023/12/19 08:33:31;;;;;;;11.97;7.60;;;;;;;;;;4889429;29;20240;-61
2023/12/19 08:35:58;;;;;;;13.47;8.30;;;;;;;;;;4886053;29;20205;-61
2023/12/19 08:38:25;;;;;;;13.80;7.23;;;;;;;;;;4883822;29;20216;-62
2023/12/19 08:40:52;;;;;;;13.07;7.60;;;;;;;;;;4893169;29;20220;-61
2023/12/19 08:43:20;;;;;;;13.73;8.07;;;;;;;;;;4891725;29;20702;-60
2023/12/19 08:45:48;;;;;;;12.43;7.20;;;;;;;;;;4892251;29;20223;-60
2023/12/19 08:48:15;;;;;;;11.83;7.50;;;;;;;;;;4892633;29;20213;-60
2023/12/19 08:50:42;;;;;;;14.77;7.80;;;;;;;;;;4880092;29;20700;-60
2023/12/19 08:53:09;;;;;;;12.47;8.00;;;;;;;;;;4889461;29;20228;-61
2023/12/19 08:55:36;;;;;;;13.67;8.37;;;;;;;;;;4891814;29;20201;-60
2023/12/19 08:58:03;;;;;;;12.77;7.07;;;;;;;;;;4891490;29;20213;-60
2023/12/19 09:00:31;;;;;;;13.27;8.00;;;;;;;;;;4892407;29;20221;-65
2023/12/19 09:02:58;;;;;;;12.67;8.20;;;;;;;;;;4879060;29;20209;-61
2023/12/19 09:05:25;;;;;;;13.60;7.80;;;;;;;;;;4874152;29;20225;-59
2023/12/19 09:07:52;;;;;;;14.67;7.13;;;;;;;;;;4873023;29;20891;-59
2023/12/19 09:10:19;;;;;;;12.83;7.93;;;;;;;;;;4880731;29;20208;-59
2023/12/19 09:12:46;;;;;;;12.10;7.07;;;;;;;;;;4891549;29;20247;-60
2023/12/19 09:15:13;;;;;;;12.60;7.27;;;;;;;;;;4891119;29;20680;-61
2023/12/19 09:17:42;;;;;;;11.20;6.93;;;;;;;;;;4891680;29;20229;-60
2023/12/19 09:20:10;;;;;;;11.90;7.33;;;;;;;;;;4891165;29;20240;-61
2023/12/19 09:22:37;;;;;;;13.73;7.73;;;;;;;;;;4887070;29;20233;-61
2023/12/19 09:25:06;;;;;;;14.77;8.23;;;;;;;;;;4875839;29;20213;-58
2023/12/19 09:27:33;;;;;;;11.63;7.00;;;;;;;;;;4890566;29;20212;-60
2023/12/19 09:30:00;;;;;;;13.60;6.77;;;;;;;;;;4878946;29;20209;-60
2023/12/19 09:32:27;;;;;;;11.63;6.83;;;;;;;;;;4891136;29;20233;-60
2023/12/19 09:34:55;;;;;;;12.97;7.50;;;;;;;;;;4890955;29;20217;-60
2023/12/19 09:37:26;;;;;;;12.30;7.60;;;;;;;;;;4891511;29;20220;-58
2023/12/19 09:39:53;;;;;;;10.93;6.80;;;;;;;;;;4880539;29;20308;-65
2023/12/19 09:42:20;;;;;;;13.63;7.33;;;;;;;;;;4886220;29;20449;-74
2023/12/19 09:44:47;;;;;;;11.93;7.10;;;;;;;;;;4879108;29;20216;-61
2023/12/19 09:47:17;;;;;;;10.07;6.37;;;;;;;;;;4889361;29;20236;-61
2023/12/19 09:49:45;;;;;;;10.67;6.57;;;;;;;;;;4890653;29;20236;-61
2023/12/19 09:52:14;;;;;;;9.37;6.00;;;;;;;;;;4890545;29;20233;-63
2023/12/19 09:54:41;;;;;;;9.63;6.37;;;;;;;;;;4884694;29;20233;-61
2023/12/19 09:57:09;;;;;;;11.37;7.00;;;;;;;;;;4890093;29;20217;-73
2023/12/19 09:59:37;;;;;;;10.03;6.53;;;;;;;;;;4880119;29;20634;-61
2023/12/19 10:02:05;;;;;;;13.43;7.10;;;;;;;;;;4877204;29;20211;-71
2023/12/19 10:04:32;;;;;;;10.13;6.30;;;;;;;;;;4884488;29;20240;-73
2023/12/19 10:06:59;;;;;;;12.90;7.17;;;;;;;;;;4890614;29;20240;-71
2023/12/19 10:09:28;;;;;;;11.03;6.73;;;;;;;;;;4890259;29;20588;-73
2023/12/19 10:12:05;;;;;;;10.70;6.03;;;;;;;;;;4890855;29;20236;-60
2023/12/19 10:14:33;;;;;;;10.67;6.50;;;;;;;;;;4890555;29;20752;-61
2023/12/19 10:17:00;;;;;;;8.10;5.87;;;;;;;;;;4889634;29;20304;-60
2023/12/19 10:19:28;;;;;;;10.30;6.33;;;;;;;;;;4890042;29;20221;-60
2023/12/19 10:22:06;;;;;;;9.87;6.07;;;;;;;;;;4888596;29;20493;-60
2023/12/19 10:24:34;;;;;;;9.27;5.90;;;;;;;;;;4884725;29;20269;-60
2023/12/19 10:27:02;;;;;;;11.33;5.80;;;;;;;;;;4884697;29;20217;-60
2023/12/19 10:29:36;;;;;;;7.63;5.43;;;;;;;;;;4889419;29;20220;-60
2023/12/19 10:32:13;;;;;;;9.37;5.60;;;;;;;;;;4890151;29;20253;-60
2023/12/19 10:34:40;;;;;;;7.17;4.97;;;;;;;;;;4883659;29;20309;-60
2023/12/19 10:37:11;;;;;;;7.60;5.37;;;;;;;;;;4890215;29;20236;-60
2023/12/19 10:39:39;;;;;;;7.83;5.30;;;;;;;;;;4889788;29;20749;-64
2023/12/19 10:42:06;;;;;;;6.00;4.40;;;;;;;;;;4889962;29;20223;-64
2023/12/19 10:44:34;;;;;;;7.57;5.20;;;;;;;;;;4889894;29;20684;-61
2023/12/19 10:47:03;;;;;;;6.60;4.37;;;;;;;;;;4878847;29;20217;-60
2023/12/19 10:49:30;;;;;;;7.60;4.80;;;;;;;;;;4870022;29;20216;-60
2023/12/19 10:51:58;;;;;;;7.70;4.93;;;;;;;;;;4887925;29;20241;-60
2023/12/19 10:54:26;;;;;;;8.00;5.50;;;;;;;;;;4888929;29;20221;-60
2023/12/19 10:57:00;;;;;;;5.40;4.17;;;;;;;;;;4889489;29;20213;-60
2023/12/19 10:59:31;;;;;;;5.63;4.43;;;;;;;;;;4889641;29;20220;-61
2023/12/19 11:02:02;;;;;;;5.97;4.50;;;;;;;;;;4888707;29;20705;-60
2023/12/19 11:04:32;;;;;;;6.33;4.33;;;;;;;;;;4889368;29;20224;-60
2023/12/19 11:07:01;;;;;;;7.90;5.17;;;;;;;;;;4889538;29;20440;-60
2023/12/19 11:09:33;;;;;;;5.83;4.63;;;;;;;;;;4889690;29;20215;-60
2023/12/19 11:12:01;;;;;;;5.03;4.20;;;;;;;;;;4889073;29;20300;-60
2023/12/19 11:14:28;;;;;;;5.80;4.20;;;;;;;;;;4888905;29;20219;-60
2023/12/19 11:16:57;;;;;;;5.80;4.27;;;;;;;;;;4889480;29;20730;-61
2023/12/19 11:19:27;;;;;;;8.57;4.33;;;;;;;;;;4889340;29;20714;-61
2023/12/19 11:21:59;;;;;;;6.40;4.03;;;;;;;;;;4889058;29;20258;-61
2023/12/19 11:24:29;;;;;;;4.57;3.77;;;;;;;;;;4889562;29;20424;-60
2023/12/19 11:26:59;;;;;;;6.03;4.40;;;;;;;;;;4888968;29;20212;-61
2023/12/19 11:29:46;;;;;;;5.50;4.60;;;;;;;;;;4889281;29;20266;-60
2023/12/19 11:32:33;;;;;;;4.33;3.87;;;;;;;;;;4889119;29;20256;-61
2023/12/19 11:35:08;;;;;;;5.90;4.43;;;;;;;;;;4889773;29;20208;-60
2023/12/19 11:37:35;;;;;;;5.20;3.90;;;;;;;;;;4889476;29;20223;-61
2023/12/19 11:40:02;;;;;;;6.33;4.20;;;;;;;;;;4887872;29;20221;-61
2023/12/19 11:42:45;;;;;;;5.97;3.83;;;;;;;;;;4889265;29;20200;-65
2023/12/19 11:45:27;;;;;;;5.60;4.30;;;;;;;;;;4889080;29;20224;-61
2023/12/19 11:47:55;;;;;;;4.57;3.97;;;;;;;;;;4888282;29;20220;-61
2023/12/19 11:50:37;;;;;;;8.33;4.70;;;;;;;;;;4889130;29;20244;-60
2023/12/19 11:53:04;;;;;;;5.77;4.17;;;;;;;;;;4888190;29;20240;-60
2023/12/19 11:55:31;;;;;;;7.30;4.63;;;;;;;;;;4888901;29;20205;-61
2023/12/19 11:58:07;;;;;;;7.50;4.83;;;;;;;;;;4888890;29;20742;-61
2023/12/19 12:00:34;;;;;;;7.73;4.40;;;;;;;;;;4889233;29;20209;-61
2023/12/19 12:03:08;;;;;;;5.80;4.20;;;;;;;;;;4888868;29;20222;-61
2023/12/19 12:05:36;;;;;;;6.20;4.40;;;;;;;;;;4889066;29;20726;-60
2023/12/19 12:08:04;;;;;;;6.53;4.00;;;;;;;;;;4888731;29;20201;-61
2023/12/19 12:10:31;;;;;;;7.77;4.57;;;;;;;;;;4889111;29;20231;-61
2023/12/19 12:13:01;;;;;;;7.50;5.40;;;;;;;;;;4890393;29;20237;-60
2023/12/19 12:15:28;;;;;;;9.60;4.80;;;;;;;;;;4891823;29;20302;-65
2023/12/19 12:18:03;;;;;;;7.03;5.27;;;;;;;;;;4877057;29;20252;-64
2023/12/19 12:20:33;;;;;;;4.60;3.90;;;;;;;;;;4892731;29;20668;-63
2023/12/19 12:23:00;;;;;;;4.37;3.60;;;;;;;;;;4893029;29;20212;-65
2023/12/19 12:25:27;;;;;;;5.07;4.07;;;;;;;;;;4892014;29;20223;-64
2023/12/19 12:27:55;;;;;;;4.57;4.07;;;;;;;;;;4893215;29;20212;-64
2023/12/19 12:30:23;;;;;;;4.90;3.73;;;;;;;;;;4892436;29;20268;-60
2023/12/19 12:33:06;;;;;;;6.63;4.23;;;;;;;;;;4888320;29;20239;-60
2023/12/19 12:35:36;;;;;;;6.63;4.20;;;;;;;;;;4886134;29;20217;-60
2023/12/19 12:38:06;;;;;;;6.73;4.33;;;;;;;;;;4892214;29;20695;-60
2023/12/19 12:40:33;;;;;;;4.90;3.97;;;;;;;;;;4892427;29;20213;-60
2023/12/19 12:43:19;;;;;;;4.43;4.03;;;;;;;;;;4892231;29;20213;-60
2023/12/19 12:45:46;;;;;;;4.40;4.00;;;;;;;;;;4890578;29;20207;-60
2023/12/19 12:48:13;;;;;;;7.90;4.07;;;;;;;;;;4892138;29;20693;-60
2023/12/19 12:50:42;;;;;;;4.23;3.70;;;;;;;;;;4892873;29;20212;-60
2023/12/19 12:53:13;;;;;;;5.20;4.13;;;;;;;;;;4892485;29;20242;-60
2023/12/19 12:55:40;;;;;;;5.10;4.13;;;;;;;;;;4889492;29;20245;-60
2023/12/19 12:58:07;;;;;;;5.47;3.70;;;;;;;;;;4891720;29;20607;-60
2023/12/19 13:00:34;;;;;;;4.97;4.23;;;;;;;;;;4892005;29;20220;-60
2023/12/19 13:03:02;;;;;;;4.57;4.03;;;;;;;;;;4892075;29;20213;-60
2023/12/19 13:05:29;;;;;;;5.23;3.93;;;;;;;;;;4891549;29;20216;-63
2023/12/19 13:07:57;;;;;;;4.40;3.87;;;;;;;;;;4886667;29;20692;-61
2023/12/19 13:10:24;;;;;;;5.40;4.13;;;;;;;;;;4888576;29;20204;-61
2023/12/19 13:12:51;;;;;;;4.70;3.80;;;;;;;;;;4886470;29;20233;-62
2023/12/19 13:15:18;;;;;;;6.17;4.57;;;;;;;;;;4891113;29;20758;-60
2023/12/19 13:17:45;;;;;;;7.43;4.07;;;;;;;;;;4890350;29;20238;-61
2023/12/19 13:20:13;;;;;;;5.00;4.10;;;;;;;;;;4890740;29;20236;-60
2023/12/19 13:22:40;;;;;;;4.73;4.00;;;;;;;;;;4891058;29;20416;-62
2023/12/19 13:25:09;;;;;;;5.10;4.00;;;;;;;;;;4890533;29;20224;-61
2023/12/19 13:27:36;;;;;;;5.53;4.30;;;;;;;;;;4889856;29;20209;-60
2023/12/19 13:30:04;;;;;;;5.53;4.47;;;;;;;;;;4890091;29;20209;-60
2023/12/19 13:32:31;;;;;;;5.97;4.77;;;;;;;;;;4879689;29;20659;-61
2023/12/19 13:34:58;;;;;;;5.17;3.93;;;;;;;;;;4890584;29;20205;-61
2023/12/19 13:37:25;;;;;;;5.57;4.33;;;;;;;;;;4891399;29;20723;-60
2023/12/19 13:39:52;;;;;;;5.00;4.10;;;;;;;;;;4890830;29;20228;-61
2023/12/19 13:42:21;;;;;;;5.10;4.33;;;;;;;;;;4891491;29;20217;-66
2023/12/19 13:44:48;;;;;;;4.70;4.00;;;;;;;;;;4890665;29;20225;-60
2023/12/19 13:47:15;;;;;;;7.77;4.57;;;;;;;;;;4890752;29;20224;-62
2023/12/19 13:49:42;;;;;;;5.63;4.90;;;;;;;;;;4890692;29;20227;-60
2023/12/19 13:52:09;;;;;;;5.87;4.00;;;;;;;;;;4891306;29;20220;-69
2023/12/19 13:54:36;;;;;;;5.67;4.20;;;;;;;;;;4890344;29;20595;-61
2023/12/19 13:57:04;;;;;;;3.93;3.63;;;;;;;;;;4891410;29;20209;-61
2023/12/19 13:59:37;;;;;;;4.73;3.77;;;;;;;;;;4887306;29;20299;-59
2023/12/19 14:02:04;;;;;;;4.93;4.17;;;;;;;;;;4890814;29;20480;-60
2023/12/19 14:04:31;;;;;;;3.93;3.50;;;;;;;;;;4890717;29;20219;-60
2023/12/19 14:06:58;;;;;;;4.47;4.13;;;;;;;;;;4871725;29;20210;-60
2023/12/19 14:09:25;;;;;;;4.33;3.87;;;;;;;;;;4890404;29;20332;-60
2023/12/19 14:11:52;;;;;;;4.37;3.97;;;;;;;;;;4889933;29;20213;-60
2023/12/19 14:14:20;;;;;;;4.27;3.57;;;;;;;;;;4890501;29;20236;-60
2023/12/19 14:16:48;;;;;;;4.57;3.80;;;;;;;;;;4889263;29;20240;-60
2023/12/19 14:19:15;;;;;;;4.33;3.93;;;;;;;;;;4890276;29;20346;-60
2023/12/19 14:21:42;;;;;;;4.97;4.10;;;;;;;;;;4889589;29;20240;-60
2023/12/19 14:24:10;;;;;;;3.83;3.40;;;;;;;;;;4890301;29;20213;-61
2023/12/19 14:26:37;;;;;;;3.83;3.50;;;;;;;;;;4889666;29;20205;-60
2023/12/19 14:29:04;;;;;;;4.23;3.90;;;;;;;;;;4890286;29;20217;-61
2023/12/19 14:31:33;;;;;;;4.47;3.97;;;;;;;;;;4889936;29;20216;-60
2023/12/19 14:34:01;;;;;;;3.90;3.53;;;;;;;;;;4890333;29;20340;-60
2023/12/19 14:36:28;;;;;;;4.17;3.80;;;;;;;;;;4888715;29;20221;-61
2023/12/19 14:38:56;;;;;;;3.90;3.50;;;;;;;;;;4889691;29;20217;-60
2023/12/19 14:41:23;;;;;;;4.67;4.20;;;;;;;;;;4889473;29;20646;-60